Time;durP1;ratioP1;P1;durP2;ratioP2;P2;SDS_P1;SDS_P2;PMS_P1;PMS_P2;Temp;Humidity;BMP_temperature;BMP_pressure;BME280_temperature;BME280_humidity;BME280_pressure;Samples;Min_cycle;Max_cycle;Signal;HPM_P1;HPM_P2
2023/01/23 00:00:27;;;;;;;5.00;3.63;;;;;;;;;;6342742;22;20150;-63
2023/01/23 00:02:53;;;;;;;6.30;4.10;;;;;;;;;;6342404;22;20162;-63
2023/01/23 00:05:19;;;;;;;5.10;3.70;;;;;;;;;;6342653;22;20149;-63
2023/01/23 00:07:45;;;;;;;5.88;3.95;;;;;;;;;;6342205;22;20149;-63
2023/01/23 00:10:11;;;;;;;5.97;4.00;;;;;;;;;;6341645;22;20142;-63
2023/01/23 00:12:40;;;;;;;6.30;3.95;;;;;;;;;;6342198;22;20192;-62
2023/01/23 00:15:06;;;;;;;5.20;3.80;;;;;;;;;;6342744;22;20143;-63
2023/01/23 00:17:32;;;;;;;5.57;3.60;;;;;;;;;;6342200;22;20138;-61
2023/01/23 00:19:59;;;;;;;5.80;3.92;;;;;;;;;;6342411;22;20153;-63
2023/01/23 00:22:25;;;;;;;7.72;3.80;;;;;;;;;;6343666;22;20178;-62
2023/01/23 00:24:51;;;;;;;6.20;4.30;;;;;;;;;;6359943;22;20142;-63
2023/01/23 00:27:17;;;;;;;7.55;4.20;;;;;;;;;;6361822;22;20153;-63
2023/01/23 00:29:44;;;;;;;7.20;4.15;;;;;;;;;;6358195;22;20139;-63
2023/01/23 00:32:11;;;;;;;8.07;4.78;;;;;;;;;;6383843;22;20146;-62
2023/01/23 00:34:37;;;;;;;6.25;4.15;;;;;;;;;;6352831;22;20143;-63
2023/01/23 00:37:03;;;;;;;5.88;3.83;;;;;;;;;;6351709;22;20233;-62
2023/01/23 00:39:30;;;;;;;6.20;4.32;;;;;;;;;;6343170;22;20233;-63
2023/01/23 00:41:56;;;;;;;6.93;4.70;;;;;;;;;;6342133;22;20174;-63
2023/01/23 00:44:22;;;;;;;8.40;4.60;;;;;;;;;;6342337;22;20146;-62
2023/01/23 00:46:48;;;;;;;5.78;4.18;;;;;;;;;;6342245;22;20146;-63
2023/01/23 00:49:16;;;;;;;6.28;3.78;;;;;;;;;;6342150;22;20191;-63
2023/01/23 00:51:44;;;;;;;5.07;3.85;;;;;;;;;;6342377;22;20142;-63
2023/01/23 00:54:10;;;;;;;6.70;3.88;;;;;;;;;;6342120;22;20230;-62
2023/01/23 00:56:36;;;;;;;5.43;3.97;;;;;;;;;;6342422;22;20197;-63
2023/01/23 00:59:02;;;;;;;5.95;3.55;;;;;;;;;;6341757;22;20138;-63
2023/01/23 01:01:30;;;;;;;4.90;3.78;;;;;;;;;;6342283;22;20169;-62
2023/01/23 01:03:57;;;;;;;6.70;4.05;;;;;;;;;;6341934;22;20146;-63
2023/01/23 01:06:23;;;;;;;6.93;4.10;;;;;;;;;;6342166;22;20445;-63
2023/01/23 01:08:49;;;;;;;5.65;3.75;;;;;;;;;;6341685;22;20550;-64
2023/01/23 01:11:15;;;;;;;5.70;4.15;;;;;;;;;;6342142;22;20164;-63
2023/01/23 01:13:43;;;;;;;5.97;4.38;;;;;;;;;;6342109;22;20165;-63
2023/01/23 01:16:10;;;;;;;7.10;4.45;;;;;;;;;;6342098;22;20143;-61
2023/01/23 01:18:36;;;;;;;7.35;4.15;;;;;;;;;;6342080;22;20432;-61
2023/01/23 01:21:06;;;;;;;6.10;4.30;;;;;;;;;;6341945;22;20226;-63
2023/01/23 01:23:32;;;;;;;6.35;4.40;;;;;;;;;;6341772;22;20155;-63
2023/01/23 01:25:59;;;;;;;8.02;4.82;;;;;;;;;;6341718;22;20497;-63
2023/01/23 01:28:27;;;;;;;10.35;5.47;;;;;;;;;;6341644;22;20444;-62
2023/01/23 01:30:52;;;;;;;6.32;4.43;;;;;;;;;;6342243;22;20169;-62
2023/01/23 01:33:18;;;;;;;6.97;4.85;;;;;;;;;;6342044;22;20138;-63
2023/01/23 01:35:46;;;;;;;7.28;4.60;;;;;;;;;;6342003;22;20549;-62
2023/01/23 01:38:12;;;;;;;7.25;5.00;;;;;;;;;;6342047;22;20168;-62
2023/01/23 01:40:38;;;;;;;9.70;5.10;;;;;;;;;;6341722;22;20142;-62
2023/01/23 01:43:05;;;;;;;7.88;4.65;;;;;;;;;;6341628;22;20185;-63
2023/01/23 01:45:50;;;;;;;8.38;5.32;;;;;;;;;;6341923;22;20443;-63
2023/01/23 01:48:16;;;;;;;8.43;5.53;;;;;;;;;;6341741;22;20286;-63
2023/01/23 01:50:42;;;;;;;7.45;4.82;;;;;;;;;;6341842;22;20142;-63
2023/01/23 01:53:09;;;;;;;6.82;4.68;;;;;;;;;;6341940;22;20416;-63
2023/01/23 01:55:35;;;;;;;10.13;5.88;;;;;;;;;;6341488;22;20154;-63
2023/01/23 01:58:01;;;;;;;9.13;5.18;;;;;;;;;;6341769;22;20161;-63
2023/01/23 02:00:27;;;;;;;8.20;5.38;;;;;;;;;;6341959;22;20149;-63
2023/01/23 02:02:54;;;;;;;6.40;4.80;;;;;;;;;;6341468;22;20166;-63
2023/01/23 02:05:23;;;;;;;7.70;5.70;;;;;;;;;;6341236;22;20185;-63
2023/01/23 02:07:49;;;;;;;8.75;5.45;;;;;;;;;;6341663;22;20147;-63
2023/01/23 02:10:15;;;;;;;8.55;5.60;;;;;;;;;;6341608;22;20135;-63
2023/01/23 02:12:45;;;;;;;9.38;5.70;;;;;;;;;;6341615;22;20153;-63
2023/01/23 02:15:12;;;;;;;8.05;5.07;;;;;;;;;;6341554;22;20142;-63
2023/01/23 02:17:37;;;;;;;10.20;5.57;;;;;;;;;;6341833;22;20193;-62
2023/01/23 02:20:17;;;;;;;7.28;4.97;;;;;;;;;;6341581;22;20615;-61
2023/01/23 02:23:03;;;;;;;7.55;4.97;;;;;;;;;;6354778;22;20173;-63
2023/01/23 02:25:44;;;;;;;7.55;4.95;;;;;;;;;;6366958;22;20142;-63
2023/01/23 02:28:11;;;;;;;8.88;5.13;;;;;;;;;;6360279;22;20189;-64
2023/01/23 02:30:38;;;;;;;7.85;5.22;;;;;;;;;;6355453;22;20178;-64
2023/01/23 02:33:08;;;;;;;8.18;5.13;;;;;;;;;;6353398;22;20142;-62
2023/01/23 02:35:36;;;;;;;8.32;5.63;;;;;;;;;;6348216;22;20466;-62
2023/01/23 02:38:03;;;;;;;9.35;5.85;;;;;;;;;;6346772;22;20199;-60
2023/01/23 02:40:31;;;;;;;7.40;5.35;;;;;;;;;;6341442;22;20142;-63
2023/01/23 02:42:59;;;;;;;9.13;5.75;;;;;;;;;;6341799;22;20503;-63
2023/01/23 02:45:26;;;;;;;10.27;5.90;;;;;;;;;;6341329;22;20168;-63
2023/01/23 02:47:52;;;;;;;12.25;6.40;;;;;;;;;;6341543;22;20149;-63
2023/01/23 02:50:18;;;;;;;8.65;5.97;;;;;;;;;;6341275;22;20142;-62
2023/01/23 02:52:44;;;;;;;8.55;5.70;;;;;;;;;;6341376;22;20166;-63
2023/01/23 02:55:10;;;;;;;10.05;5.85;;;;;;;;;;6341227;22;20150;-63
2023/01/23 02:57:37;;;;;;;8.20;5.53;;;;;;;;;;6341419;22;20534;-62
2023/01/23 03:00:18;;;;;;;8.40;5.57;;;;;;;;;;6341260;22;20198;-64
2023/01/23 03:02:45;;;;;;;9.63;5.93;;;;;;;;;;6366086;22;20516;-63
2023/01/23 03:05:14;;;;;;;8.70;5.85;;;;;;;;;;6341606;22;20161;-61
2023/01/23 03:07:41;;;;;;;8.52;5.70;;;;;;;;;;6341667;22;20561;-63
2023/01/23 03:10:08;;;;;;;9.18;6.28;;;;;;;;;;6343491;22;20165;-64
2023/01/23 03:12:34;;;;;;;8.57;6.05;;;;;;;;;;6343373;22;20217;-63
2023/01/23 03:15:01;;;;;;;9.52;5.97;;;;;;;;;;6343160;22;20199;-63
2023/01/23 03:17:27;;;;;;;10.30;6.55;;;;;;;;;;6343264;22;20425;-63
2023/01/23 03:19:56;;;;;;;10.15;6.38;;;;;;;;;;6343386;22;20143;-63
2023/01/23 03:22:22;;;;;;;9.35;6.03;;;;;;;;;;6342944;22;20632;-62
2023/01/23 03:24:48;;;;;;;9.82;6.25;;;;;;;;;;6343215;22;20173;-63
2023/01/23 03:27:14;;;;;;;10.35;6.38;;;;;;;;;;6343186;22;20565;-62
2023/01/23 03:32:24;;;;;;;10.00;6.32;;;;;;;;;;6343071;22;20138;-62
2023/01/23 03:34:51;;;;;;;8.07;5.95;;;;;;;;;;6343047;22;20208;-63
2023/01/23 03:37:18;;;;;;;10.85;6.30;;;;;;;;;;6342994;22;20245;-63
2023/01/23 03:42:29;;;;;;;10.13;5.93;;;;;;;;;;6342656;22;20487;-63
2023/01/23 03:44:55;;;;;;;9.93;6.70;;;;;;;;;;6342271;22;20228;-62
2023/01/23 03:47:21;;;;;;;8.73;5.85;;;;;;;;;;6342874;22;20173;-63
2023/01/23 03:49:47;;;;;;;11.40;7.05;;;;;;;;;;6342570;22;20138;-63
2023/01/23 03:52:13;;;;;;;9.82;6.18;;;;;;;;;;6342528;22;20188;-62
2023/01/23 03:54:41;;;;;;;10.60;7.10;;;;;;;;;;6342657;22;20138;-63
2023/01/23 03:57:06;;;;;;;9.48;6.88;;;;;;;;;;6342776;22;20158;-63
2023/01/23 03:59:32;;;;;;;10.38;6.53;;;;;;;;;;6342765;22;20425;-62
2023/01/23 04:02:00;;;;;;;11.15;7.13;;;;;;;;;;6342756;22;20178;-63
2023/01/23 04:04:27;;;;;;;10.55;6.47;;;;;;;;;;6355217;22;20158;-62
2023/01/23 04:06:53;;;;;;;11.32;7.10;;;;;;;;;;6355652;22;20208;-63
2023/01/23 04:09:19;;;;;;;9.60;6.05;;;;;;;;;;6351299;22;20142;-63
2023/01/23 04:11:46;;;;;;;11.60;7.40;;;;;;;;;;6346642;22;20201;-63
2023/01/23 04:14:12;;;;;;;11.25;7.30;;;;;;;;;;6346709;22;20146;-63
2023/01/23 04:16:38;;;;;;;11.90;7.32;;;;;;;;;;6345610;22;20185;-62
2023/01/23 04:19:04;;;;;;;11.07;7.15;;;;;;;;;;6344154;22;20163;-61
2023/01/23 04:21:30;;;;;;;11.25;7.80;;;;;;;;;;6342921;22;20210;-63
2023/01/23 04:23:56;;;;;;;15.43;7.65;;;;;;;;;;6342385;22;20139;-63
2023/01/23 04:26:22;;;;;;;12.35;6.88;;;;;;;;;;6342452;22;20147;-63
2023/01/23 04:28:48;;;;;;;13.55;7.47;;;;;;;;;;6342398;22;20149;-63
2023/01/23 04:31:13;;;;;;;12.38;7.25;;;;;;;;;;6342259;22;20494;-63
2023/01/23 04:33:39;;;;;;;12.57;7.00;;;;;;;;;;6342361;22;20150;-63
2023/01/23 04:36:06;;;;;;;12.10;7.30;;;;;;;;;;6342300;22;20150;-63
2023/01/23 04:38:33;;;;;;;13.55;7.82;;;;;;;;;;6342192;22;20255;-63
2023/01/23 04:40:59;;;;;;;13.57;7.40;;;;;;;;;;6342120;22;20150;-63
2023/01/23 04:43:25;;;;;;;10.88;7.07;;;;;;;;;;6341744;22;20153;-63
2023/01/23 04:45:52;;;;;;;12.90;7.40;;;;;;;;;;6342113;22;20165;-63
2023/01/23 04:48:18;;;;;;;12.45;7.40;;;;;;;;;;6342761;22;20146;-63
2023/01/23 04:50:44;;;;;;;13.82;7.35;;;;;;;;;;6342145;22;20142;-61
2023/01/23 04:53:10;;;;;;;11.90;7.65;;;;;;;;;;6342299;22;20203;-61
2023/01/23 04:55:36;;;;;;;13.25;8.15;;;;;;;;;;6342139;22;20222;-62
2023/01/23 04:58:03;;;;;;;12.77;7.40;;;;;;;;;;6342213;22;20162;-62
2023/01/23 05:00:29;;;;;;;12.65;7.80;;;;;;;;;;6341932;22;20213;-63
2023/01/23 05:02:55;;;;;;;14.35;8.20;;;;;;;;;;6343495;22;20251;-62
2023/01/23 05:05:21;;;;;;;14.38;8.32;;;;;;;;;;6342639;22;20142;-62
2023/01/23 05:07:47;;;;;;;14.05;8.02;;;;;;;;;;6342303;22;20545;-63
2023/01/23 05:10:15;;;;;;;14.43;8.18;;;;;;;;;;6341798;22;20556;-63
2023/01/23 05:12:41;;;;;;;14.02;8.07;;;;;;;;;;6341983;22;20138;-63
2023/01/23 05:15:08;;;;;;;13.25;7.68;;;;;;;;;;6342047;22;20379;-63
2023/01/23 05:17:34;;;;;;;14.20;7.93;;;;;;;;;;6342081;22;20146;-63
2023/01/23 05:20:00;;;;;;;13.63;8.05;;;;;;;;;;6342206;22;20517;-63
2023/01/23 05:22:25;;;;;;;12.63;7.72;;;;;;;;;;6341654;22;20189;-63
2023/01/23 05:24:51;;;;;;;13.02;8.10;;;;;;;;;;6341948;22;20161;-63
2023/01/23 05:27:17;;;;;;;14.40;8.20;;;;;;;;;;6341404;22;20146;-62
2023/01/23 05:29:45;;;;;;;14.65;8.45;;;;;;;;;;6341937;22;20218;-62
2023/01/23 05:32:11;;;;;;;15.15;8.70;;;;;;;;;;6341741;22;20545;-64
2023/01/23 05:34:37;;;;;;;18.10;9.05;;;;;;;;;;6341722;22;20150;-64
2023/01/23 05:37:03;;;;;;;16.25;8.98;;;;;;;;;;6341618;22;20208;-64
2023/01/23 05:39:31;;;;;;;15.88;8.52;;;;;;;;;;6341960;22;20170;-63
2023/01/23 05:41:57;;;;;;;17.52;9.82;;;;;;;;;;6341752;22;20528;-62
2023/01/23 05:44:23;;;;;;;16.15;9.52;;;;;;;;;;6341961;22;20142;-62
2023/01/23 05:46:49;;;;;;;16.20;8.43;;;;;;;;;;6341773;22;20517;-63
2023/01/23 05:49:15;;;;;;;16.45;8.65;;;;;;;;;;6341932;22;20445;-63
2023/01/23 05:51:41;;;;;;;17.40;9.60;;;;;;;;;;6341417;22;20146;-63
2023/01/23 05:54:07;;;;;;;18.83;9.73;;;;;;;;;;6341572;22;20240;-63
2023/01/23 05:56:33;;;;;;;17.05;9.02;;;;;;;;;;6341215;22;20203;-63
2023/01/23 05:58:59;;;;;;;18.63;9.88;;;;;;;;;;6341710;22;20147;-62
2023/01/23 06:01:25;;;;;;;21.25;9.95;;;;;;;;;;6340224;22;20162;-62
2023/01/23 06:03:51;;;;;;;20.73;9.85;;;;;;;;;;6341395;22;20135;-62
2023/01/23 06:06:17;;;;;;;26.88;10.80;;;;;;;;;;6341603;22;20146;-62
2023/01/23 06:08:43;;;;;;;19.80;9.40;;;;;;;;;;6341366;22;20149;-62
2023/01/23 06:11:08;;;;;;;21.20;10.88;;;;;;;;;;6341510;22;20138;-61
2023/01/23 06:13:35;;;;;;;24.58;11.20;;;;;;;;;;6341337;22;20138;-62
2023/01/23 06:16:01;;;;;;;21.60;9.93;;;;;;;;;;6341517;22;20141;-61
2023/01/23 06:18:27;;;;;;;23.30;10.65;;;;;;;;;;6341475;22;20243;-62
2023/01/23 06:21:00;;;;;;;23.92;10.30;;;;;;;;;;6341872;22;20530;-62
2023/01/23 06:23:26;;;;;;;24.20;10.27;;;;;;;;;;6339880;22;20233;-62
2023/01/23 06:25:52;;;;;;;29.67;10.75;;;;;;;;;;6341259;22;20191;-62
2023/01/23 06:28:18;;;;;;;23.02;10.35;;;;;;;;;;6341419;22;20134;-64
2023/01/23 06:30:44;;;;;;;20.02;10.57;;;;;;;;;;6357126;22;20154;-63
2023/01/23 06:33:10;;;;;;;20.50;10.50;;;;;;;;;;6358703;22;20146;-63
2023/01/23 06:35:36;;;;;;;22.92;10.60;;;;;;;;;;6354928;22;20211;-63
2023/01/23 06:38:02;;;;;;;24.40;10.45;;;;;;;;;;6353293;22;20275;-63
2023/01/23 06:40:29;;;;;;;24.98;10.57;;;;;;;;;;6352905;22;20406;-63
2023/01/23 06:42:55;;;;;;;24.20;10.43;;;;;;;;;;6348481;22;20162;-63
2023/01/23 06:45:21;;;;;;;23.27;10.82;;;;;;;;;;6349414;22;20139;-62
2023/01/23 06:47:50;;;;;;;25.77;10.82;;;;;;;;;;6342386;22;20226;-62
2023/01/23 06:50:16;;;;;;;23.70;11.02;;;;;;;;;;6341728;22;20204;-61
2023/01/23 06:52:42;;;;;;;22.02;10.60;;;;;;;;;;6341172;22;20146;-60
2023/01/23 06:55:08;;;;;;;22.58;10.82;;;;;;;;;;6341297;22;20162;-61
2023/01/23 06:57:35;;;;;;;24.30;10.45;;;;;;;;;;6340657;22;20621;-62
2023/01/23 07:00:01;;;;;;;20.80;10.32;;;;;;;;;;6341330;22;20142;-61
2023/01/23 07:02:27;;;;;;;18.67;9.38;;;;;;;;;;6341643;22;20265;-63
2023/01/23 07:04:53;;;;;;;22.10;9.95;;;;;;;;;;6342449;22;20145;-62
2023/01/23 07:07:19;;;;;;;20.58;9.88;;;;;;;;;;6341317;22;20549;-62
2023/01/23 07:09:45;;;;;;;17.90;9.05;;;;;;;;;;6341389;22;20513;-63
2023/01/23 07:12:11;;;;;;;21.13;9.80;;;;;;;;;;6341223;22;20154;-63
2023/01/23 07:14:37;;;;;;;18.48;9.85;;;;;;;;;;6340975;22;20425;-63
2023/01/23 07:17:03;;;;;;;20.55;9.95;;;;;;;;;;6340001;22;20167;-62
2023/01/23 07:19:29;;;;;;;23.90;10.75;;;;;;;;;;6341627;22;20444;-61
2023/01/23 07:21:55;;;;;;;18.90;9.50;;;;;;;;;;6341001;22;20474;-62
2023/01/23 07:24:21;;;;;;;22.35;10.07;;;;;;;;;;6341378;22;20549;-62
2023/01/23 07:26:47;;;;;;;25.30;10.18;;;;;;;;;;6340349;22;20490;-63
2023/01/23 07:29:13;;;;;;;20.15;10.65;;;;;;;;;;6340843;22;20138;-62
2023/01/23 07:31:39;;;;;;;17.45;9.80;;;;;;;;;;6341114;22;20442;-62
2023/01/23 07:34:05;;;;;;;21.50;10.40;;;;;;;;;;6340770;22;20146;-61
2023/01/23 07:36:31;;;;;;;20.67;10.13;;;;;;;;;;6340764;22;20142;-62
2023/01/23 07:38:57;;;;;;;15.85;9.00;;;;;;;;;;6340694;22;20193;-62
2023/01/23 07:41:23;;;;;;;18.52;9.65;;;;;;;;;;6340718;22;20166;-63
2023/01/23 07:43:49;;;;;;;20.13;10.48;;;;;;;;;;6341211;22;20573;-63
2023/01/23 07:46:15;;;;;;;25.67;11.77;;;;;;;;;;6347131;22;20143;-63
2023/01/23 07:48:41;;;;;;;19.67;10.45;;;;;;;;;;6343928;22;20162;-62
2023/01/23 07:51:07;;;;;;;17.05;9.82;;;;;;;;;;6343227;22;20146;-61
2023/01/23 07:53:33;;;;;;;21.33;9.55;;;;;;;;;;6343780;22;20157;-61
2023/01/23 07:56:01;;;;;;;15.80;9.45;;;;;;;;;;6352243;22;20190;-63
2023/01/23 07:58:27;;;;;;;17.63;8.85;;;;;;;;;;6347154;22;20146;-61
2023/01/23 08:00:53;;;;;;;18.20;9.20;;;;;;;;;;6342754;22;20169;-61
2023/01/23 08:03:19;;;;;;;16.60;9.65;;;;;;;;;;6341553;22;20185;-62
2023/01/23 08:05:49;;;;;;;19.90;10.20;;;;;;;;;;6342725;22;20149;-61
2023/01/23 08:08:15;;;;;;;16.80;9.30;;;;;;;;;;6342606;22;20255;-62
2023/01/23 08:10:41;;;;;;;17.40;9.65;;;;;;;;;;6342537;22;20149;-63
2023/01/23 08:13:07;;;;;;;17.67;9.98;;;;;;;;;;6342749;22;20142;-62
2023/01/23 08:15:33;;;;;;;16.63;10.00;;;;;;;;;;6342627;22;20200;-63
2023/01/23 08:17:59;;;;;;;15.35;9.88;;;;;;;;;;6342063;22;20162;-62
2023/01/23 08:20:25;;;;;;;15.75;9.40;;;;;;;;;;6342554;22;20222;-63
2023/01/23 08:22:51;;;;;;;19.38;9.52;;;;;;;;;;6341941;22;20178;-64
2023/01/23 08:25:17;;;;;;;16.23;9.50;;;;;;;;;;6342007;22;20226;-64
2023/01/23 08:27:43;;;;;;;16.02;9.23;;;;;;;;;;6342339;22;20146;-62
2023/01/23 08:30:09;;;;;;;17.10;10.20;;;;;;;;;;6342358;22;20409;-64
2023/01/23 08:32:35;;;;;;;20.77;10.07;;;;;;;;;;6342872;22;20225;-63
2023/01/23 08:35:03;;;;;;;17.52;10.63;;;;;;;;;;6341900;22;20173;-64
2023/01/23 08:37:29;;;;;;;22.25;10.20;;;;;;;;;;6341945;22;20554;-64
2023/01/23 08:39:55;;;;;;;16.33;9.32;;;;;;;;;;6341998;22;20178;-64
2023/01/23 08:42:21;;;;;;;17.30;9.25;;;;;;;;;;6367060;22;20196;-64
2023/01/23 08:44:47;;;;;;;17.63;9.40;;;;;;;;;;6342039;22;20140;-64
2023/01/23 08:47:13;;;;;;;17.15;8.88;;;;;;;;;;6342024;22;20226;-64
2023/01/23 08:49:39;;;;;;;18.35;10.02;;;;;;;;;;6342326;22;20168;-63
2023/01/23 08:52:05;;;;;;;18.25;9.45;;;;;;;;;;6342015;22;20572;-63
2023/01/23 08:54:31;;;;;;;16.00;9.63;;;;;;;;;;6342154;22;20149;-64
2023/01/23 08:56:58;;;;;;;16.05;8.48;;;;;;;;;;6342325;22;20143;-63
2023/01/23 08:59:24;;;;;;;15.50;8.73;;;;;;;;;;6342381;22;20146;-61
2023/01/23 09:01:50;;;;;;;17.80;10.05;;;;;;;;;;6343107;22;20465;-62
2023/01/23 09:04:16;;;;;;;17.48;9.25;;;;;;;;;;6342449;22;20173;-62
2023/01/23 09:06:42;;;;;;;16.35;8.95;;;;;;;;;;6341802;22;20203;-64
2023/01/23 09:09:08;;;;;;;15.73;9.20;;;;;;;;;;6341677;22;20225;-64
2023/01/23 09:11:35;;;;;;;17.10;9.07;;;;;;;;;;6341910;22;20221;-63
2023/01/23 09:14:02;;;;;;;15.98;8.80;;;;;;;;;;6341881;22;20612;-63
2023/01/23 09:16:29;;;;;;;16.20;8.77;;;;;;;;;;6341828;22;20569;-63
2023/01/23 09:18:55;;;;;;;16.60;9.27;;;;;;;;;;6341634;22;20142;-63
2023/01/23 09:21:21;;;;;;;16.70;9.93;;;;;;;;;;6341490;22;20203;-64
2023/01/23 09:23:47;;;;;;;16.17;9.25;;;;;;;;;;6342057;22;20161;-63
2023/01/23 09:26:14;;;;;;;17.50;8.70;;;;;;;;;;6342100;22;20570;-63
2023/01/23 09:28:41;;;;;;;15.23;8.98;;;;;;;;;;6341834;22;20142;-63
2023/01/23 09:31:09;;;;;;;16.42;9.20;;;;;;;;;;6342026;22;20171;-62
2023/01/23 09:33:35;;;;;;;15.65;8.52;;;;;;;;;;6341928;22;20199;-63
2023/01/23 09:36:02;;;;;;;14.45;9.13;;;;;;;;;;6342359;22;20141;-60
2023/01/23 09:38:28;;;;;;;17.10;9.40;;;;;;;;;;6341769;22;20143;-63
2023/01/23 09:40:55;;;;;;;16.92;10.07;;;;;;;;;;6341869;22;20138;-63
2023/01/23 09:43:41;;;;;;;17.80;9.93;;;;;;;;;;6341786;22;20174;-64
2023/01/23 09:46:10;;;;;;;15.75;9.15;;;;;;;;;;6341442;22;20143;-63
2023/01/23 09:48:43;;;;;;;15.40;8.85;;;;;;;;;;6342090;22;20393;-63
2023/01/23 09:51:33;;;;;;;15.07;9.30;;;;;;;;;;6342152;22;20444;-62
2023/01/23 09:54:02;;;;;;;17.15;9.88;;;;;;;;;;6326107;22;20156;-61
2023/01/23 09:56:30;;;;;;;13.25;9.00;;;;;;;;;;6342065;22;20142;-63
2023/01/23 09:59:03;;;;;;;13.68;8.57;;;;;;;;;;6341891;22;20143;-64
2023/01/23 10:01:30;;;;;;;13.85;8.70;;;;;;;;;;6342704;22;20162;-63
2023/01/23 10:03:57;;;;;;;15.20;8.27;;;;;;;;;;6342166;22;20146;-62
2023/01/23 10:06:24;;;;;;;17.17;9.32;;;;;;;;;;6341931;22;20146;-62
2023/01/23 10:09:00;;;;;;;15.00;8.00;;;;;;;;;;6342627;22;20168;-63
2023/01/23 10:11:34;;;;;;;12.40;8.55;;;;;;;;;;6343739;22;20213;-63
2023/01/23 10:14:24;;;;;;;14.10;8.55;;;;;;;;;;6341475;22;20423;-62
2023/01/23 10:16:53;;;;;;;14.70;8.90;;;;;;;;;;6342596;22;20150;-62
2023/01/23 10:19:37;;;;;;;12.32;8.40;;;;;;;;;;6342399;22;20194;-63
2023/01/23 10:22:21;;;;;;;12.82;8.15;;;;;;;;;;6341735;22;20177;-62
2023/01/23 10:24:52;;;;;;;13.68;7.63;;;;;;;;;;6342026;22;20150;-61
2023/01/23 10:27:19;;;;;;;14.68;8.52;;;;;;;;;;6342320;22;20150;-61
2023/01/23 10:29:49;;;;;;;12.90;7.45;;;;;;;;;;6343276;22;20142;-61
2023/01/23 10:32:26;;;;;;;12.15;7.88;;;;;;;;;;6343310;22;20138;-62
2023/01/23 10:35:03;;;;;;;14.02;7.38;;;;;;;;;;6343287;22;20194;-63
2023/01/23 10:37:48;;;;;;;15.93;7.80;;;;;;;;;;6344837;22;20130;-63
2023/01/23 10:40:16;;;;;;;11.55;7.43;;;;;;;;;;6344765;22;20580;-64
2023/01/23 10:42:42;;;;;;;14.90;8.20;;;;;;;;;;6343799;22;20241;-62
2023/01/23 10:45:15;;;;;;;11.93;7.68;;;;;;;;;;6343911;22;20150;-64
2023/01/23 10:47:47;;;;;;;11.95;7.75;;;;;;;;;;6344765;22;20127;-63
2023/01/23 10:50:14;;;;;;;11.32;6.88;;;;;;;;;;6344167;22;20401;-63
2023/01/23 10:52:42;;;;;;;11.57;6.72;;;;;;;;;;6342790;22;20555;-61
2023/01/23 10:55:23;;;;;;;16.08;7.55;;;;;;;;;;6341687;22;20211;-63
2023/01/23 10:57:52;;;;;;;13.20;7.60;;;;;;;;;;6341653;22;20168;-62
2023/01/23 11:00:35;;;;;;;11.43;7.10;;;;;;;;;;6342315;22;20166;-63
2023/01/23 11:03:19;;;;;;;10.80;7.22;;;;;;;;;;6341296;22;20160;-64
2023/01/23 11:05:51;;;;;;;12.43;7.53;;;;;;;;;;6341195;22;20138;-64
2023/01/23 11:08:35;;;;;;;13.02;7.28;;;;;;;;;;6341036;22;20428;-63
2023/01/23 11:11:21;;;;;;;12.52;7.72;;;;;;;;;;6341449;22;20138;-63
2023/01/23 11:13:48;;;;;;;12.40;7.57;;;;;;;;;;6341668;22;20119;-64
2023/01/23 11:16:21;;;;;;;14.23;7.88;;;;;;;;;;6341672;22;20142;-63
2023/01/23 11:19:05;;;;;;;11.82;7.10;;;;;;;;;;6348190;22;20145;-62
2023/01/23 11:21:57;;;;;;;12.25;7.45;;;;;;;;;;6349200;22;20461;-63
2023/01/23 11:24:29;;;;;;;11.20;6.70;;;;;;;;;;6339543;22;20565;-63
2023/01/23 11:27:05;;;;;;;12.02;6.88;;;;;;;;;;6344232;22;20586;-63
2023/01/23 11:29:45;;;;;;;12.00;6.53;;;;;;;;;;6346128;22;20142;-62
2023/01/23 11:32:12;;;;;;;9.70;6.68;;;;;;;;;;6345859;22;20148;-62
2023/01/23 11:35:01;;;;;;;12.23;6.70;;;;;;;;;;6343670;22;20182;-65
2023/01/23 11:37:34;;;;;;;11.85;6.72;;;;;;;;;;6342599;22;20150;-63
2023/01/23 11:40:03;;;;;;;11.13;6.55;;;;;;;;;;6343257;22;20130;-63
2023/01/23 11:42:29;;;;;;;12.55;6.40;;;;;;;;;;6342842;22;20226;-63
2023/01/23 11:44:57;;;;;;;9.75;6.65;;;;;;;;;;6342600;22;20138;-62
2023/01/23 11:47:39;;;;;;;13.45;6.85;;;;;;;;;;6342867;22;20138;-63
2023/01/23 11:50:09;;;;;;;11.23;6.75;;;;;;;;;;6342954;22;20142;-63
2023/01/23 11:52:35;;;;;;;12.73;7.13;;;;;;;;;;6342790;22;20200;-63
2023/01/23 11:55:25;;;;;;;11.45;6.40;;;;;;;;;;6342769;22;20162;-64
2023/01/23 11:57:59;;;;;;;11.98;7.47;;;;;;;;;;6343193;22;20195;-64
2023/01/23 12:00:41;;;;;;;12.68;7.13;;;;;;;;;;6342617;22;20165;-64
2023/01/23 12:03:27;;;;;;;15.35;7.53;;;;;;;;;;6342366;22;20158;-64
2023/01/23 12:05:59;;;;;;;8.00;5.85;;;;;;;;;;6280440;22;20173;-64
2023/01/23 12:08:44;;;;;;;13.35;6.25;;;;;;;;;;6343013;22;20135;-64
2023/01/23 12:11:11;;;;;;;10.68;6.35;;;;;;;;;;6342308;22;20153;-63
2023/01/23 12:13:52;;;;;;;12.60;6.53;;;;;;;;;;6342665;22;20150;-62
2023/01/23 12:16:18;;;;;;;11.15;6.38;;;;;;;;;;6342823;22;20126;-62
2023/01/23 12:19:03;;;;;;;12.77;6.28;;;;;;;;;;6342731;22;20161;-61
2023/01/23 12:21:32;;;;;;;12.63;6.20;;;;;;;;;;6343039;22;20185;-64
2023/01/23 12:24:03;;;;;;;8.73;5.95;;;;;;;;;;6342587;22;20150;-63
2023/01/23 12:26:31;;;;;;;12.38;6.95;;;;;;;;;;6342698;22;20214;-61
2023/01/23 12:29:03;;;;;;;12.10;6.00;;;;;;;;;;6342577;22;20147;-62
2023/01/23 12:31:44;;;;;;;13.13;6.35;;;;;;;;;;6342049;22;20131;-61
2023/01/23 12:34:36;;;;;;;11.23;6.95;;;;;;;;;;6342461;22;20199;-63
2023/01/23 12:37:18;;;;;;;13.57;6.53;;;;;;;;;;6336888;22;20560;-62
2023/01/23 12:39:44;;;;;;;12.88;6.68;;;;;;;;;;6343188;22;20126;-63
2023/01/23 12:42:31;;;;;;;14.57;6.53;;;;;;;;;;6342364;22;20201;-62
2023/01/23 12:44:57;;;;;;;9.63;5.80;;;;;;;;;;6342682;22;20126;-63
2023/01/23 12:47:26;;;;;;;11.32;6.32;;;;;;;;;;6342522;22;20153;-62
2023/01/23 12:50:14;;;;;;;13.10;6.28;;;;;;;;;;6342922;22;20142;-62
2023/01/23 12:52:46;;;;;;;11.60;5.90;;;;;;;;;;6342768;22;20135;-62
2023/01/23 12:55:15;;;;;;;12.60;6.05;;;;;;;;;;6342709;22;20213;-63
2023/01/23 12:57:50;;;;;;;9.98;5.97;;;;;;;;;;6342451;22;20153;-64
2023/01/23 13:00:35;;;;;;;10.90;6.25;;;;;;;;;;6344721;22;20129;-64
2023/01/23 13:03:26;;;;;;;12.45;6.13;;;;;;;;;;6354677;22;20169;-63
2023/01/23 13:05:58;;;;;;;10.73;5.30;;;;;;;;;;6347908;22;20157;-63
2023/01/23 13:08:45;;;;;;;12.93;6.85;;;;;;;;;;6345572;22;20147;-63
2023/01/23 13:13:56;;;;;;;10.88;6.13;;;;;;;;;;6341960;22;20141;-63
2023/01/23 13:16:27;;;;;;;12.10;6.03;;;;;;;;;;6342181;22;20149;-63
2023/01/23 13:22:01;;;;;;;11.95;6.22;;;;;;;;;;6341570;22;20193;-64
2023/01/23 13:27:51;;;;;;;11.05;5.78;;;;;;;;;;6341705;22;20152;-62
2023/01/23 13:30:30;;;;;;;10.63;6.00;;;;;;;;;;6216479;23;20530;-63
2023/01/23 13:33:00;;;;;;;10.25;5.80;;;;;;;;;;6216642;23;20199;-63
2023/01/23 13:35:43;;;;;;;10.68;6.05;;;;;;;;;;6217068;23;20579;-61
2023/01/23 13:38:21;;;;;;;21.30;9.63;;;;;;;;;;6191010;23;20223;-63
2023/01/23 13:41:07;;;;;;;13.23;6.60;;;;;;;;;;6216337;23;20218;-63
2023/01/23 13:43:52;;;;;;;10.80;5.95;;;;;;;;;;6216183;23;20469;-63
2023/01/23 13:46:36;;;;;;;11.35;5.78;;;;;;;;;;6216042;23;20199;-62
2023/01/23 13:51:48;;;;;;;10.52;5.13;;;;;;;;;;6215943;23;20200;-62
2023/01/23 13:57:06;;;;;;;11.88;5.90;;;;;;;;;;6216188;23;20147;-63
2023/01/23 13:59:35;;;;;;;10.15;5.80;;;;;;;;;;6216227;23;20187;-63
2023/01/23 14:05:14;;;;;;;14.02;6.18;;;;;;;;;;6341908;22;20163;-63
2023/01/23 14:07:47;;;;;;;12.65;5.45;;;;;;;;;;6341332;22;20256;-64
2023/01/23 14:10:31;;;;;;;12.18;5.55;;;;;;;;;;6341599;22;20164;-61
2023/01/23 14:13:10;;;;;;;10.82;5.75;;;;;;;;;;6341645;22;20483;-62
2023/01/23 14:18:36;;;;;;;12.77;5.88;;;;;;;;;;6341290;22;20137;-63
2023/01/23 14:21:06;;;;;;;11.13;5.55;;;;;;;;;;6341114;22;20142;-63
2023/01/23 14:23:34;;;;;;;9.75;5.82;;;;;;;;;;6340804;22;20579;-62
2023/01/23 14:26:01;;;;;;;10.70;5.57;;;;;;;;;;6341712;22;20138;-63
2023/01/23 14:28:27;;;;;;;12.25;6.25;;;;;;;;;;6341430;22;20138;-61
2023/01/23 14:31:01;;;;;;;11.10;5.55;;;;;;;;;;6341441;22;20138;-63
2023/01/23 14:33:28;;;;;;;13.52;6.15;;;;;;;;;;6340715;22;20203;-63
2023/01/23 14:35:57;;;;;;;14.38;6.65;;;;;;;;;;6341224;22;20142;-63
2023/01/23 14:38:32;;;;;;;11.00;5.68;;;;;;;;;;6341273;22;20170;-63
2023/01/23 14:40:58;;;;;;;12.73;5.95;;;;;;;;;;6341940;22;20137;-60
2023/01/23 14:43:26;;;;;;;9.55;5.72;;;;;;;;;;6341272;22;20180;-62
2023/01/23 14:45:59;;;;;;;12.68;6.18;;;;;;;;;;6341739;22;20186;-59
2023/01/23 14:48:25;;;;;;;9.48;6.13;;;;;;;;;;6342692;22;20138;-62
2023/01/23 14:51:01;;;;;;;11.85;6.72;;;;;;;;;;6344053;22;20185;-62
2023/01/23 14:53:26;;;;;;;12.88;6.28;;;;;;;;;;6344671;22;20188;-63
2023/01/23 14:55:53;;;;;;;11.77;5.85;;;;;;;;;;6343915;22;20196;-62
2023/01/23 14:58:23;;;;;;;9.48;5.88;;;;;;;;;;6344651;22;20142;-63
2023/01/23 15:00:50;;;;;;;9.57;5.63;;;;;;;;;;6344098;22;20153;-62
2023/01/23 15:03:34;;;;;;;12.10;6.05;;;;;;;;;;6343053;22;20588;-63
2023/01/23 15:06:02;;;;;;;11.40;5.70;;;;;;;;;;6343202;22;20209;-60
2023/01/23 15:08:32;;;;;;;12.95;6.30;;;;;;;;;;6342947;22;20150;-62